Time;durP1;ratioP1;P1;durP2;ratioP2;P2;SDS_P1;SDS_P2;PMS_P1;PMS_P2;Temp;Humidity;BMP_temperature;BMP_pressure;BME280_temperature;BME280_humidity;BME280_pressure;Samples;Min_cycle;Max_cycle;Signal;HPM_P1;HPM_P2
2024/04/02 00:01:34;;;;;;;12.70;5.43;;;;;;;;;;5068790;28;20284;-56
2024/04/02 00:04:09;;;;;;;13.65;5.10;;;;;;;;;;5033557;28;20202;-57
2024/04/02 00:06:36;;;;;;;14.57;5.35;;;;;;;;;;5067710;28;20210;-56
2024/04/02 00:09:02;;;;;;;18.10;5.78;;;;;;;;;;5068784;28;20210;-56
2024/04/02 00:11:28;;;;;;;14.73;5.63;;;;;;;;;;5068505;28;20210;-57
2024/04/02 00:13:54;;;;;;;19.33;5.53;;;;;;;;;;5068312;28;20198;-57
2024/04/02 00:16:20;;;;;;;17.10;5.28;;;;;;;;;;5068508;28;20206;-56
2024/04/02 00:18:47;;;;;;;13.88;5.07;;;;;;;;;;5032590;28;20640;-56
2024/04/02 00:21:14;;;;;;;18.10;5.57;;;;;;;;;;5068373;28;20588;-57
2024/04/02 00:23:41;;;;;;;15.80;5.82;;;;;;;;;;5068173;28;20235;-56
2024/04/02 00:26:07;;;;;;;17.08;6.18;;;;;;;;;;5068347;28;20238;-56
2024/04/02 00:28:33;;;;;;;11.63;4.82;;;;;;;;;;5032876;28;20207;-57
2024/04/02 00:31:00;;;;;;;12.55;5.07;;;;;;;;;;5068343;28;20210;-55
2024/04/02 00:33:25;;;;;;;14.68;4.28;;;;;;;;;;5067878;28;20245;-57
2024/04/02 00:36:01;;;;;;;13.23;4.75;;;;;;;;;;5068322;28;20242;-56
2024/04/02 00:38:26;;;;;;;13.63;4.68;;;;;;;;;;5068232;28;20234;-57
2024/04/02 00:40:53;;;;;;;8.65;4.20;;;;;;;;;;5067956;28;20241;-55
2024/04/02 00:43:18;;;;;;;17.35;5.88;;;;;;;;;;5067690;28;20796;-57
2024/04/02 00:45:45;;;;;;;13.02;4.68;;;;;;;;;;5032272;28;20238;-57
2024/04/02 00:48:11;;;;;;;10.43;4.25;;;;;;;;;;5067413;28;20209;-56
2024/04/02 00:50:37;;;;;;;18.02;4.35;;;;;;;;;;5067874;28;20294;-56
2024/04/02 00:53:05;;;;;;;12.60;4.50;;;;;;;;;;5067646;28;20610;-57
2024/04/02 00:55:31;;;;;;;14.82;4.80;;;;;;;;;;5067714;28;20299;-56
2024/04/02 00:57:57;;;;;;;18.58;5.25;;;;;;;;;;5048154;28;20206;-57
2024/04/02 01:00:23;;;;;;;19.08;5.65;;;;;;;;;;5067532;28;20207;-57
2024/04/02 01:02:49;;;;;;;10.82;3.97;;;;;;;;;;5031727;28;20222;-53
2024/04/02 01:05:16;;;;;;;12.85;4.68;;;;;;;;;;5067075;28;20203;-57
2024/04/02 01:07:42;;;;;;;16.88;6.05;;;;;;;;;;5067013;28;20675;-56
2024/04/02 01:10:10;;;;;;;21.20;6.43;;;;;;;;;;5048382;28;20198;-56
2024/04/02 01:12:35;;;;;;;16.95;5.30;;;;;;;;;;5067286;28;20202;-57
2024/04/02 01:15:03;;;;;;;14.52;5.18;;;;;;;;;;5067066;28;20207;-57
2024/04/02 01:17:28;;;;;;;13.23;4.28;;;;;;;;;;5066804;28;20199;-56
2024/04/02 01:19:55;;;;;;;16.83;4.43;;;;;;;;;;5067053;28;20206;-57
2024/04/02 01:22:20;;;;;;;11.38;4.90;;;;;;;;;;5067262;28;20238;-57
2024/04/02 01:24:50;;;;;;;11.75;4.88;;;;;;;;;;5067135;28;20253;-56
2024/04/02 01:27:17;;;;;;;11.90;4.75;;;;;;;;;;5066796;28;20202;-55
2024/04/02 01:29:43;;;;;;;17.40;5.18;;;;;;;;;;5066917;28;20664;-55
2024/04/02 01:32:09;;;;;;;10.43;4.13;;;;;;;;;;5066895;28;20205;-57
2024/04/02 01:34:35;;;;;;;14.07;4.07;;;;;;;;;;5066818;28;20202;-58
2024/04/02 01:37:01;;;;;;;13.05;4.00;;;;;;;;;;5067136;28;20199;-57
2024/04/02 01:39:27;;;;;;;15.13;4.68;;;;;;;;;;5066935;28;20202;-56
2024/04/02 01:41:53;;;;;;;13.13;4.57;;;;;;;;;;5066259;28;20238;-56
2024/04/02 01:44:21;;;;;;;8.65;4.32;;;;;;;;;;5066922;28;20207;-56
2024/04/02 01:46:46;;;;;;;9.77;3.00;;;;;;;;;;5066556;28;20199;-55
2024/04/02 01:49:12;;;;;;;11.35;4.07;;;;;;;;;;5066553;28;20225;-57
2024/04/02 01:51:38;;;;;;;13.32;4.60;;;;;;;;;;5066692;28;20206;-55
2024/04/02 01:54:05;;;;;;;9.77;3.75;;;;;;;;;;5066773;28;20214;-56
2024/04/02 01:56:30;;;;;;;17.25;5.90;;;;;;;;;;5066438;28;20190;-56
2024/04/02 01:58:57;;;;;;;19.75;5.35;;;;;;;;;;5066233;28;20202;-57
2024/04/02 02:01:24;;;;;;;16.17;5.05;;;;;;;;;;5066399;28;20203;-57
2024/04/02 02:03:50;;;;;;;16.05;5.28;;;;;;;;;;5066062;28;20729;-57
2024/04/02 02:06:16;;;;;;;8.07;3.88;;;;;;;;;;5066315;28;20205;-57
2024/04/02 02:08:42;;;;;;;12.27;5.00;;;;;;;;;;5066656;28;20657;-57
2024/04/02 02:11:08;;;;;;;12.02;5.07;;;;;;;;;;5066948;28;20856;-56
2024/04/02 02:13:35;;;;;;;12.27;4.25;;;;;;;;;;5066449;28;20200;-56
2024/04/02 02:16:01;;;;;;;8.82;3.38;;;;;;;;;;5066524;28;20195;-57
2024/04/02 02:18:29;;;;;;;5.90;2.97;;;;;;;;;;5066019;28;20277;-57
2024/04/02 02:20:55;;;;;;;8.73;4.13;;;;;;;;;;5066278;28;20970;-56
2024/04/02 02:23:21;;;;;;;10.40;3.30;;;;;;;;;;5066150;28;20234;-57
2024/04/02 02:25:47;;;;;;;12.10;3.65;;;;;;;;;;5030695;28;20199;-55
2024/04/02 02:28:13;;;;;;;9.00;3.95;;;;;;;;;;5066375;28;20203;-57
2024/04/02 02:30:39;;;;;;;15.50;3.90;;;;;;;;;;5032903;28;20195;-56
2024/04/02 02:33:05;;;;;;;12.32;4.03;;;;;;;;;;5070506;28;20687;-57
2024/04/02 02:35:32;;;;;;;11.50;4.07;;;;;;;;;;5070150;28;20206;-57
2024/04/02 02:37:59;;;;;;;12.02;3.83;;;;;;;;;;5070269;28;20198;-57
2024/04/02 02:40:24;;;;;;;8.85;4.00;;;;;;;;;;5070419;28;20226;-57
2024/04/02 02:42:51;;;;;;;10.13;4.15;;;;;;;;;;5070107;28;20732;-57
2024/04/02 02:45:16;;;;;;;9.20;3.35;;;;;;;;;;5070175;28;20583;-55
2024/04/02 02:47:43;;;;;;;12.95;3.97;;;;;;;;;;5070340;28;20205;-57
2024/04/02 02:50:08;;;;;;;14.00;4.22;;;;;;;;;;5069815;28;20258;-57
2024/04/02 02:52:37;;;;;;;13.93;4.13;;;;;;;;;;5070025;28;20797;-57
2024/04/02 02:55:02;;;;;;;4.80;2.90;;;;;;;;;;5034405;28;20227;-57
2024/04/02 02:57:29;;;;;;;7.03;3.15;;;;;;;;;;5069637;28;20315;-57
2024/04/02 02:59:54;;;;;;;8.65;4.15;;;;;;;;;;5069630;28;20214;-56
2024/04/02 03:02:21;;;;;;;14.40;4.25;;;;;;;;;;5069432;28;20652;-55
2024/04/02 03:04:49;;;;;;;7.93;3.58;;;;;;;;;;5069583;28;20230;-57
2024/04/02 03:07:15;;;;;;;14.73;4.75;;;;;;;;;;5069718;28;20716;-56
2024/04/02 03:09:42;;;;;;;9.55;3.15;;;;;;;;;;5069765;28;20209;-57
2024/04/02 03:12:09;;;;;;;9.90;3.63;;;;;;;;;;5069395;28;20199;-56
2024/04/02 03:14:35;;;;;;;10.82;3.65;;;;;;;;;;5069727;28;20237;-57
2024/04/02 03:17:01;;;;;;;10.80;3.97;;;;;;;;;;5069540;28;20664;-57
2024/04/02 03:19:27;;;;;;;21.63;5.45;;;;;;;;;;5069195;28;20687;-57
2024/04/02 03:21:54;;;;;;;13.27;3.80;;;;;;;;;;5069255;28;20210;-57
2024/04/02 03:24:19;;;;;;;8.32;3.13;;;;;;;;;;5069519;28;20226;-56
2024/04/02 03:26:48;;;;;;;7.50;3.45;;;;;;;;;;5069343;28;20723;-56
2024/04/02 03:29:13;;;;;;;12.18;3.60;;;;;;;;;;5069093;28;20202;-57
2024/04/02 03:31:40;;;;;;;8.55;3.03;;;;;;;;;;5069665;28;20203;-57
2024/04/02 03:34:06;;;;;;;10.88;3.97;;;;;;;;;;5068882;28;20229;-56
2024/04/02 03:36:32;;;;;;;7.63;3.05;;;;;;;;;;5069406;28;20921;-57
2024/04/02 03:38:59;;;;;;;7.30;4.03;;;;;;;;;;5069174;28;20195;-56
2024/04/02 03:41:25;;;;;;;11.18;3.50;;;;;;;;;;5068907;28;20195;-51
2024/04/02 03:43:53;;;;;;;11.90;4.75;;;;;;;;;;5068961;28;20666;-56
2024/04/02 03:46:20;;;;;;;12.48;4.72;;;;;;;;;;5033510;28;20293;-56
2024/04/02 03:48:48;;;;;;;10.23;3.78;;;;;;;;;;5068626;28;20214;-55
2024/04/02 03:51:15;;;;;;;10.20;4.00;;;;;;;;;;5068688;28;20230;-56
2024/04/02 03:53:41;;;;;;;10.80;3.85;;;;;;;;;;5069158;28;20206;-57
2024/04/02 03:56:08;;;;;;;12.40;3.88;;;;;;;;;;5068822;28;20198;-57
2024/04/02 03:58:33;;;;;;;10.35;4.20;;;;;;;;;;5068880;28;20206;-57
2024/04/02 04:01:01;;;;;;;11.95;3.75;;;;;;;;;;5068489;28;20202;-57
2024/04/02 04:03:27;;;;;;;13.07;4.22;;;;;;;;;;5068463;28;20318;-57
2024/04/02 04:05:57;;;;;;;10.38;3.45;;;;;;;;;;5068581;28;20301;-57
2024/04/02 04:08:22;;;;;;;12.02;4.07;;;;;;;;;;5068408;28;20207;-56
2024/04/02 04:10:49;;;;;;;14.50;4.03;;;;;;;;;;5032293;28;20215;-56
2024/04/02 04:13:14;;;;;;;12.95;3.70;;;;;;;;;;5068197;28;20203;-57
2024/04/02 04:15:41;;;;;;;9.00;3.50;;;;;;;;;;5032633;28;20209;-56
2024/04/02 04:18:08;;;;;;;11.25;3.97;;;;;;;;;;5068214;28;20203;-56
2024/04/02 04:20:35;;;;;;;10.85;3.53;;;;;;;;;;5068264;28;20206;-57
2024/04/02 04:23:00;;;;;;;14.90;4.20;;;;;;;;;;5067939;28;20624;-55
2024/04/02 04:25:27;;;;;;;14.93;3.80;;;;;;;;;;5068239;28;20221;-56
2024/04/02 04:27:52;;;;;;;11.98;3.75;;;;;;;;;;5067819;28;20996;-56
2024/04/02 04:30:19;;;;;;;11.75;4.40;;;;;;;;;;5068346;28;20302;-56
2024/04/02 04:32:44;;;;;;;10.00;3.28;;;;;;;;;;5067990;28;20198;-55
2024/04/02 04:35:12;;;;;;;10.82;3.70;;;;;;;;;;5032397;28;20705;-55
2024/04/02 04:37:38;;;;;;;7.65;3.40;;;;;;;;;;5068009;28;20195;-56
2024/04/02 04:40:05;;;;;;;6.20;3.17;;;;;;;;;;5068065;28;20199;-56
2024/04/02 04:42:32;;;;;;;12.35;3.80;;;;;;;;;;5067762;28;20313;-58
2024/04/02 04:44:59;;;;;;;8.20;3.15;;;;;;;;;;5067787;28;20237;-57
2024/04/02 04:47:25;;;;;;;6.57;2.33;;;;;;;;;;5068015;28;20198;-53
2024/04/02 04:49:51;;;;;;;14.20;4.40;;;;;;;;;;5067551;28;20589;-55
2024/04/02 04:52:18;;;;;;;16.17;4.95;;;;;;;;;;5067522;28;20202;-56
2024/04/02 04:54:45;;;;;;;16.15;5.15;;;;;;;;;;5067573;28;20306;-56
2024/04/02 04:57:10;;;;;;;13.45;4.07;;;;;;;;;;5067738;28;20743;-57
2024/04/02 04:59:37;;;;;;;9.98;3.28;;;;;;;;;;5048354;28;20278;-57
2024/04/02 05:02:02;;;;;;;11.45;3.83;;;;;;;;;;5067340;28;20405;-56
2024/04/02 05:04:29;;;;;;;8.65;3.22;;;;;;;;;;5067033;28;20997;-56
2024/04/02 05:06:55;;;;;;;16.15;5.25;;;;;;;;;;5067180;28;20202;-56
2024/04/02 05:09:23;;;;;;;13.25;4.32;;;;;;;;;;5067338;28;20203;-55
2024/04/02 05:11:48;;;;;;;11.68;4.10;;;;;;;;;;5067001;28;20252;-56
2024/04/02 05:14:17;;;;;;;11.27;3.80;;;;;;;;;;5067217;28;20691;-56
2024/04/02 05:16:45;;;;;;;11.35;3.60;;;;;;;;;;5067025;28;20639;-54
2024/04/02 05:19:12;;;;;;;13.55;3.58;;;;;;;;;;5032557;28;20202;-56
2024/04/02 05:21:37;;;;;;;10.68;3.60;;;;;;;;;;5067396;28;20588;-55
2024/04/02 05:24:04;;;;;;;14.48;3.75;;;;;;;;;;5031261;28;20235;-55
2024/04/02 05:26:31;;;;;;;10.13;3.60;;;;;;;;;;5031027;28;20467;-54
2024/04/02 05:28:58;;;;;;;15.70;4.50;;;;;;;;;;5067209;28;20207;-54
2024/04/02 05:31:24;;;;;;;13.25;4.10;;;;;;;;;;5066887;28;20199;-56
2024/04/02 05:33:51;;;;;;;11.23;4.82;;;;;;;;;;5066756;28;20599;-56
2024/04/02 05:36:16;;;;;;;9.85;3.25;;;;;;;;;;5066725;28;20210;-57
2024/04/02 05:38:44;;;;;;;9.88;3.83;;;;;;;;;;5066651;28;20244;-57
2024/04/02 05:41:09;;;;;;;12.77;3.50;;;;;;;;;;5066557;28;20207;-56
2024/04/02 05:43:37;;;;;;;10.88;3.97;;;;;;;;;;5066125;28;20241;-57
2024/04/02 05:46:03;;;;;;;10.18;3.58;;;;;;;;;;5047653;28;20199;-55
2024/04/02 05:48:30;;;;;;;12.85;3.40;;;;;;;;;;5066190;28;20762;-56
2024/04/02 05:50:55;;;;;;;13.40;4.15;;;;;;;;;;5066415;28;20272;-53
2024/04/02 05:53:22;;;;;;;12.30;3.88;;;;;;;;;;5066453;28;20646;-53
2024/04/02 05:55:47;;;;;;;11.75;3.55;;;;;;;;;;5066473;28;20576;-54
2024/04/02 05:58:14;;;;;;;11.27;3.83;;;;;;;;;;5066242;28;20195;-55
2024/04/02 06:00:41;;;;;;;9.55;3.58;;;;;;;;;;5066531;28;20195;-55
2024/04/02 06:03:08;;;;;;;13.45;4.07;;;;;;;;;;5047288;28;20222;-56
2024/04/02 06:05:33;;;;;;;14.75;3.92;;;;;;;;;;5065525;28;20337;-53
2024/04/02 06:08:01;;;;;;;11.65;3.42;;;;;;;;;;5066587;28;20227;-56
2024/04/02 06:10:27;;;;;;;11.85;3.85;;;;;;;;;;5066518;28;20202;-55
2024/04/02 06:12:54;;;;;;;13.90;3.92;;;;;;;;;;5066421;28;20599;-55
2024/04/02 06:15:20;;;;;;;10.70;3.13;;;;;;;;;;5066298;28;20230;-56
2024/04/02 06:17:48;;;;;;;8.15;3.42;;;;;;;;;;5066113;28;20221;-55
2024/04/02 06:20:13;;;;;;;9.13;3.42;;;;;;;;;;5065859;28;20202;-56
2024/04/02 06:22:40;;;;;;;10.77;3.38;;;;;;;;;;5066189;28;20223;-55
2024/04/02 06:25:05;;;;;;;12.32;3.47;;;;;;;;;;5066135;28;20206;-56
2024/04/02 06:27:32;;;;;;;12.20;3.15;;;;;;;;;;5066271;28;20203;-56
2024/04/02 06:29:57;;;;;;;12.63;3.72;;;;;;;;;;5066288;28;20199;-55
2024/04/02 06:32:24;;;;;;;14.00;4.10;;;;;;;;;;5066192;28;20213;-54
2024/04/02 06:34:51;;;;;;;10.20;3.80;;;;;;;;;;5065724;28;20294;-55
2024/04/02 06:37:17;;;;;;;9.02;3.80;;;;;;;;;;5066110;28;20198;-55
2024/04/02 06:39:43;;;;;;;13.25;3.35;;;;;;;;;;5066210;28;20572;-54
2024/04/02 06:42:09;;;;;;;11.20;3.70;;;;;;;;;;5065568;28;20234;-56
2024/04/02 06:44:35;;;;;;;7.43;3.30;;;;;;;;;;5065880;28;20226;-55
2024/04/02 06:47:01;;;;;;;10.45;4.05;;;;;;;;;;5065958;28;20229;-54
2024/04/02 06:49:27;;;;;;;7.50;3.75;;;;;;;;;;5065872;28;20210;-55
2024/04/02 06:51:55;;;;;;;10.93;3.40;;;;;;;;;;5065840;28;20199;-55
2024/04/02 06:54:20;;;;;;;10.88;3.63;;;;;;;;;;5065915;28;20250;-54
2024/04/02 06:56:47;;;;;;;13.75;4.45;;;;;;;;;;5065825;28;20693;-51
2024/04/02 06:59:12;;;;;;;13.65;4.60;;;;;;;;;;5065293;28;20202;-55
2024/04/02 07:01:39;;;;;;;16.63;4.28;;;;;;;;;;5066042;28;20206;-55
2024/04/02 07:04:04;;;;;;;14.57;4.80;;;;;;;;;;5065660;28;20313;-55
2024/04/02 07:06:31;;;;;;;16.25;4.25;;;;;;;;;;5066079;28;20271;-55
2024/04/02 07:08:59;;;;;;;14.27;4.65;;;;;;;;;;5065613;28;20221;-55
2024/04/02 07:11:26;;;;;;;9.85;4.25;;;;;;;;;;5066021;28;20203;-54
2024/04/02 07:13:52;;;;;;;14.30;4.40;;;;;;;;;;5065621;28;20617;-51
2024/04/02 07:16:19;;;;;;;11.80;4.28;;;;;;;;;;5031314;28;20973;-54
2024/04/02 07:18:44;;;;;;;17.08;4.55;;;;;;;;;;5069202;28;20195;-53
2024/04/02 07:21:11;;;;;;;12.38;4.80;;;;;;;;;;5069099;28;20203;-54
2024/04/02 07:23:36;;;;;;;11.95;3.95;;;;;;;;;;5069514;28;20238;-52
2024/04/02 07:26:04;;;;;;;18.08;5.05;;;;;;;;;;5069472;28;20206;-52
2024/04/02 07:28:30;;;;;;;12.35;4.15;;;;;;;;;;5034064;28;20199;-53
2024/04/02 07:30:57;;;;;;;18.35;4.70;;;;;;;;;;5050412;28;20203;-54
2024/04/02 07:33:22;;;;;;;9.52;4.35;;;;;;;;;;5069236;28;20675;-51
2024/04/02 07:35:49;;;;;;;17.75;5.55;;;;;;;;;;5049833;28;20213;-53
2024/04/02 07:38:14;;;;;;;11.57;4.50;;;;;;;;;;5069070;28;20191;-50
2024/04/02 07:40:41;;;;;;;12.82;4.65;;;;;;;;;;5068923;28;20210;-50
2024/04/02 07:43:08;;;;;;;10.43;3.78;;;;;;;;;;5068784;28;20250;-52
2024/04/02 07:45:35;;;;;;;13.82;4.13;;;;;;;;;;5033132;28;20214;-50
2024/04/02 07:48:00;;;;;;;15.18;4.63;;;;;;;;;;5068641;28;20674;-52
2024/04/02 07:50:28;;;;;;;16.23;5.38;;;;;;;;;;5068484;28;20195;-49
2024/04/02 07:52:55;;;;;;;11.90;4.43;;;;;;;;;;5068541;28;20199;-53
2024/04/02 07:55:20;;;;;;;15.68;4.15;;;;;;;;;;5068947;28;20199;-50
2024/04/02 07:57:47;;;;;;;17.02;5.30;;;;;;;;;;5068654;28;20222;-52
2024/04/02 08:00:14;;;;;;;10.88;4.15;;;;;;;;;;5068602;28;20199;-55
2024/04/02 08:02:40;;;;;;;20.20;4.63;;;;;;;;;;5068580;28;20206;-54
2024/04/02 08:05:06;;;;;;;14.07;4.55;;;;;;;;;;5068367;28;20241;-52
2024/04/02 08:07:33;;;;;;;14.90;4.28;;;;;;;;;;5068346;28;20940;-51
2024/04/02 08:10:00;;;;;;;15.27;4.65;;;;;;;;;;5033166;28;20238;-52
2024/04/02 08:12:26;;;;;;;11.07;4.75;;;;;;;;;;5068218;28;20286;-52
2024/04/02 08:14:52;;;;;;;13.52;3.95;;;;;;;;;;5068327;28;20209;-54
2024/04/02 08:17:19;;;;;;;14.48;4.38;;;;;;;;;;5068258;28;20686;-54
2024/04/02 08:19:45;;;;;;;15.15;4.25;;;;;;;;;;5032408;28;20372;-52
2024/04/02 08:22:13;;;;;;;25.70;5.03;;;;;;;;;;5068506;28;20203;-52
2024/04/02 08:24:38;;;;;;;13.13;4.53;;;;;;;;;;5067705;28;20702;-54
2024/04/02 08:27:05;;;;;;;16.25;4.97;;;;;;;;;;5031956;28;20268;-54
2024/04/02 08:29:31;;;;;;;10.52;4.15;;;;;;;;;;5048551;28;20203;-54
2024/04/02 08:31:57;;;;;;;11.02;4.05;;;;;;;;;;5068083;28;20209;-54
2024/04/02 08:34:24;;;;;;;12.05;3.92;;;;;;;;;;5067693;28;20195;-54
2024/04/02 08:36:51;;;;;;;11.80;4.20;;;;;;;;;;5067692;28;20238;-54
2024/04/02 08:39:17;;;;;;;11.90;4.07;;;;;;;;;;5068028;28;20564;-55
2024/04/02 08:41:43;;;;;;;14.85;4.88;;;;;;;;;;5067315;28;20253;-53
2024/04/02 08:44:09;;;;;;;15.35;4.97;;;;;;;;;;5048468;28;20226;-53
2024/04/02 08:46:36;;;;;;;12.90;3.50;;;;;;;;;;5067598;28;20691;-54
2024/04/02 08:49:02;;;;;;;14.35;4.90;;;;;;;;;;5067623;28;20203;-51
2024/04/02 08:51:30;;;;;;;12.93;4.60;;;;;;;;;;5067566;28;20256;-53
2024/04/02 08:53:55;;;;;;;16.13;4.80;;;;;;;;;;5067312;28;20665;-50
2024/04/02 08:56:22;;;;;;;14.18;4.80;;;;;;;;;;5031605;28;20199;-52
2024/04/02 08:58:48;;;;;;;13.80;4.43;;;;;;;;;;5067710;28;20215;-51
2024/04/02 09:01:15;;;;;;;15.13;4.88;;;;;;;;;;5067248;28;20214;-54
2024/04/02 09:03:41;;;;;;;14.88;4.22;;;;;;;;;;5067140;28;20284;-51
2024/04/02 09:06:08;;;;;;;12.52;3.80;;;;;;;;;;5067342;28;20211;-53
2024/04/02 09:08:43;;;;;;;13.45;4.22;;;;;;;;;;5067340;28;20214;-54
2024/04/02 09:11:09;;;;;;;10.90;3.80;;;;;;;;;;5067334;28;20206;-54
2024/04/02 09:13:36;;;;;;;15.45;4.65;;;;;;;;;;5066997;28;20199;-55
2024/04/02 09:16:02;;;;;;;15.50;4.25;;;;;;;;;;5067326;28;20257;-51
2024/04/02 09:18:31;;;;;;;9.15;4.53;;;;;;;;;;5031535;28;20203;-55
2024/04/02 09:20:59;;;;;;;13.68;3.97;;;;;;;;;;5066927;28;20202;-55
2024/04/02 09:23:24;;;;;;;11.00;4.07;;;;;;;;;;5067021;28;20718;-52
2024/04/02 09:25:52;;;;;;;14.10;5.00;;;;;;;;;;5067142;28;20213;-54
2024/04/02 09:28:18;;;;;;;13.32;5.13;;;;;;;;;;5067264;28;20207;-52
2024/04/02 09:30:44;;;;;;;10.05;4.30;;;;;;;;;;5066833;28;20276;-54
2024/04/02 09:33:11;;;;;;;16.58;4.00;;;;;;;;;;5066873;28;20742;-54
2024/04/02 09:35:44;;;;;;;15.27;4.28;;;;;;;;;;5066615;28;20203;-53
2024/04/02 09:38:11;;;;;;;15.57;4.35;;;;;;;;;;5066453;28;20722;-53
2024/04/02 09:40:38;;;;;;;12.88;4.45;;;;;;;;;;5066616;28;20279;-54
2024/04/02 09:43:07;;;;;;;15.10;4.53;;;;;;;;;;5047647;28;20661;-53
2024/04/02 09:45:33;;;;;;;10.38;3.78;;;;;;;;;;5066271;28;20234;-54
2024/04/02 09:47:59;;;;;;;12.77;4.00;;;;;;;;;;5066350;28;20225;-53
2024/04/02 09:50:27;;;;;;;12.07;3.58;;;;;;;;;;5066844;28;20891;-52
2024/04/02 09:52:53;;;;;;;11.27;4.10;;;;;;;;;;5066332;28;20206;-53
2024/04/02 09:55:20;;;;;;;12.10;3.75;;;;;;;;;;5066641;28;20198;-51
2024/04/02 09:57:45;;;;;;;12.30;4.20;;;;;;;;;;5066464;28;20695;-56
2024/04/02 10:00:13;;;;;;;13.38;4.05;;;;;;;;;;5047504;28;20211;-52
2024/04/02 10:02:39;;;;;;;8.82;2.65;;;;;;;;;;5066162;28;20206;-51
2024/04/02 10:05:08;;;;;;;12.75;4.43;;;;;;;;;;5066737;28;20243;-53
2024/04/02 10:07:39;;;;;;;10.18;3.58;;;;;;;;;;5047313;28;20234;-53
2024/04/02 10:10:06;;;;;;;11.52;3.85;;;;;;;;;;5066289;28;20203;-52
2024/04/02 10:12:33;;;;;;;11.07;3.72;;;;;;;;;;5066360;28;20203;-52
2024/04/02 10:15:04;;;;;;;9.65;3.75;;;;;;;;;;5066224;28;20203;-54
2024/04/02 10:17:33;;;;;;;13.10;3.78;;;;;;;;;;5065913;28;20625;-53
2024/04/02 10:20:00;;;;;;;14.75;4.53;;;;;;;;;;5065957;28;20199;-53
2024/04/02 10:22:26;;;;;;;15.48;3.80;;;;;;;;;;5066263;28;20583;-54
2024/04/02 10:25:05;;;;;;;9.65;3.45;;;;;;;;;;5065767;28;20915;-54
2024/04/02 10:27:32;;;;;;;8.90;3.13;;;;;;;;;;5066240;28;20285;-53
2024/04/02 10:29:59;;;;;;;11.82;3.40;;;;;;;;;;5066143;28;20210;-54
2024/04/02 10:32:29;;;;;;;11.27;3.50;;;;;;;;;;5066299;28;20213;-55
2024/04/02 10:34:57;;;;;;;9.75;3.38;;;;;;;;;;5047060;28;20878;-52
2024/04/02 10:37:23;;;;;;;10.20;3.35;;;;;;;;;;5066229;28;20214;-51
2024/04/02 10:39:49;;;;;;;10.88;2.92;;;;;;;;;;5066004;28;20858;-55
2024/04/02 10:42:15;;;;;;;14.43;3.70;;;;;;;;;;5065966;28;20242;-53
2024/04/02 10:44:41;;;;;;;11.32;3.28;;;;;;;;;;5065987;28;20223;-55
2024/04/02 10:47:15;;;;;;;10.30;3.30;;;;;;;;;;5065762;28;20195;-52
2024/04/02 10:49:46;;;;;;;10.45;3.13;;;;;;;;;;5066033;28;20210;-51
2024/04/02 10:52:13;;;;;;;11.25;3.58;;;;;;;;;;5049692;28;20810;-53
2024/04/02 10:54:40;;;;;;;7.38;2.80;;;;;;;;;;5050860;28;20285;-53
2024/04/02 10:57:06;;;;;;;10.20;3.03;;;;;;;;;;5069586;28;20203;-55
2024/04/02 10:59:36;;;;;;;6.95;2.28;;;;;;;;;;5069810;28;20218;-54
2024/04/02 11:02:05;;;;;;;7.97;2.72;;;;;;;;;;5070287;28;20687;-52
2024/04/02 11:04:32;;;;;;;7.43;2.55;;;;;;;;;;5069507;28;20223;-53
2024/04/02 11:06:57;;;;;;;5.35;1.90;;;;;;;;;;5069315;28;20195;-54
2024/04/02 11:09:25;;;;;;;5.07;1.73;;;;;;;;;;5069486;28;20218;-54
2024/04/02 11:11:52;;;;;;;6.00;2.25;;;;;;;;;;5069385;28;20202;-51
2024/04/02 11:14:18;;;;;;;4.70;2.53;;;;;;;;;;5069377;28;20614;-51
2024/04/02 11:16:44;;;;;;;7.55;2.20;;;;;;;;;;5069638;28;20203;-54
2024/04/02 11:19:10;;;;;;;4.65;2.10;;;;;;;;;;5069391;28;20671;-52
2024/04/02 11:21:37;;;;;;;7.30;2.72;;;;;;;;;;5069315;28;20597;-55
2024/04/02 11:26:50;;;;;;;3.67;1.70;;;;;;;;;;5069061;28;20202;-52
2024/04/02 11:29:15;;;;;;;3.20;1.40;;;;;;;;;;5069207;28;20214;-53
2024/04/02 11:31:42;;;;;;;3.13;1.20;;;;;;;;;;5069301;28;20199;-54
2024/04/02 11:34:07;;;;;;;5.20;1.13;;;;;;;;;;5068857;28;20767;-51
2024/04/02 11:36:34;;;;;;;5.60;1.70;;;;;;;;;;5049910;28;20206;-54
2024/04/02 11:38:59;;;;;;;3.63;1.30;;;;;;;;;;5068940;28;20210;-53
2024/04/02 11:41:27;;;;;;;1.58;1.02;;;;;;;;;;5068929;28;20215;-50
2024/04/02 11:43:53;;;;;;;3.38;1.30;;;;;;;;;;5068778;28;20289;-56
2024/04/02 11:46:21;;;;;;;4.40;1.02;;;;;;;;;;5033207;28;20207;-55
2024/04/02 11:48:46;;;;;;;1.80;1.10;;;;;;;;;;5068869;28;20207;-55
2024/04/02 11:51:13;;;;;;;4.75;1.55;;;;;;;;;;5068723;28;20245;-54
2024/04/02 11:53:38;;;;;;;3.53;1.23;;;;;;;;;;5033354;28;20205;-50
2024/04/02 11:56:05;;;;;;;6.88;1.48;;;;;;;;;;5068807;28;20206;-56
2024/04/02 12:01:17;;;;;;;4.72;1.35;;;;;;;;;;5068367;28;20342;-56
2024/04/02 12:03:43;;;;;;;2.20;1.38;;;;;;;;;;5032790;28;20579;-53
2024/04/02 12:06:09;;;;;;;1.92;1.40;;;;;;;;;;5068559;28;20199;-54
2024/04/02 12:08:36;;;;;;;4.72;1.23;;;;;;;;;;5068248;28;20199;-55
2024/04/02 12:11:01;;;;;;;2.85;1.35;;;;;;;;;;5068218;28;20696;-51
2024/04/02 12:13:28;;;;;;;2.58;1.55;;;;;;;;;;5068344;28;20230;-56
2024/04/02 12:15:55;;;;;;;1.60;1.10;;;;;;;;;;5068050;28;20698;-54
2024/04/02 12:18:22;;;;;;;2.72;1.13;;;;;;;;;;5068216;28;20206;-52
2024/04/02 12:20:48;;;;;;;1.40;1.10;;;;;;;;;;5068256;28;20285;-53
2024/04/02 12:23:14;;;;;;;2.45;1.20;;;;;;;;;;5067695;28;20219;-55
2024/04/02 12:25:41;;;;;;;2.72;1.17;;;;;;;;;;5067996;28;20262;-55
2024/04/02 12:28:07;;;;;;;2.22;1.45;;;;;;;;;;5032558;28;20199;-55
2024/04/02 12:30:34;;;;;;;3.95;1.33;;;;;;;;;;5068112;28;20217;-54
2024/04/02 12:32:59;;;;;;;2.45;1.27;;;;;;;;;;5032437;28;20202;-55
2024/04/02 12:35:28;;;;;;;3.97;1.08;;;;;;;;;;5068208;28;20206;-55
2024/04/02 12:37:54;;;;;;;1.67;1.02;;;;;;;;;;5067697;28;20231;-54
2024/04/02 12:40:21;;;;;;;2.00;1.30;;;;;;;;;;5067729;28;20289;-54
2024/04/02 12:42:46;;;;;;;3.47;1.23;;;;;;;;;;5032355;28;20226;-55
2024/04/02 12:45:13;;;;;;;3.28;1.10;;;;;;;;;;5067917;28;20626;-54
2024/04/02 12:47:38;;;;;;;2.65;1.25;;;;;;;;;;5032428;28;20599;-53
2024/04/02 12:50:05;;;;;;;2.10;1.40;;;;;;;;;;5067714;28;20207;-50
2024/04/02 12:52:33;;;;;;;2.67;1.27;;;;;;;;;;5067808;28;20637;-52
2024/04/02 12:54:59;;;;;;;4.47;1.67;;;;;;;;;;5067298;28;20199;-55
2024/04/02 12:57:26;;;;;;;2.35;1.40;;;;;;;;;;5067907;28;20207;-53
2024/04/02 12:59:52;;;;;;;2.35;1.40;;;;;;;;;;5067421;28;20199;-54
2024/04/02 13:02:18;;;;;;;3.38;1.45;;;;;;;;;;5067683;28;20206;-54
2024/04/02 13:04:45;;;;;;;2.47;1.08;;;;;;;;;;5067441;28;20232;-54
2024/04/02 13:07:10;;;;;;;3.08;1.33;;;;;;;;;;5067126;28;20221;-54
2024/04/02 13:09:38;;;;;;;3.33;1.48;;;;;;;;;;5067112;28;20586;-53
2024/04/02 13:12:04;;;;;;;2.92;1.58;;;;;;;;;;5067364;28;20195;-54
2024/04/02 13:14:32;;;;;;;2.70;1.67;;;;;;;;;;5067158;28;20221;-53
2024/04/02 13:16:58;;;;;;;2.58;1.40;;;;;;;;;;5067238;28;20246;-55
2024/04/02 13:19:25;;;;;;;2.78;1.60;;;;;;;;;;5067337;28;20230;-53
2024/04/02 13:21:50;;;;;;;3.05;1.83;;;;;;;;;;5067222;28;20251;-52
2024/04/02 13:24:17;;;;;;;4.55;1.90;;;;;;;;;;5066844;28;20276;-53
2024/04/02 13:26:44;;;;;;;3.35;1.73;;;;;;;;;;5067391;28;20229;-55
2024/04/02 13:29:10;;;;;;;3.05;1.85;;;;;;;;;;5066922;28;20238;-55
2024/04/02 13:31:36;;;;;;;2.40;1.50;;;;;;;;;;5066889;28;20195;-54
2024/04/02 13:34:02;;;;;;;2.72;1.30;;;;;;;;;;5066792;28;20213;-53
2024/04/02 13:36:28;;;;;;;2.88;1.60;;;;;;;;;;5047525;28;20228;-54
2024/04/02 13:38:55;;;;;;;2.25;1.40;;;;;;;;;;5066377;28;20253;-55
2024/04/02 13:41:23;;;;;;;2.80;1.23;;;;;;;;;;5066850;28;20194;-53
2024/04/02 13:43:51;;;;;;;2.35;1.58;;;;;;;;;;5031055;28;20319;-53
2024/04/02 13:46:18;;;;;;;1.90;1.23;;;;;;;;;;5066752;28;20245;-54
2024/04/02 13:48:44;;;;;;;2.30;1.50;;;;;;;;;;5066549;28;20257;-55
2024/04/02 13:51:12;;;;;;;2.95;1.33;;;;;;;;;;5030746;28;20587;-54
2024/04/02 13:53:39;;;;;;;4.68;1.23;;;;;;;;;;5066730;28;20721;-55
2024/04/02 13:56:04;;;;;;;2.28;1.00;;;;;;;;;;5066627;28;20198;-54
2024/04/02 13:58:31;;;;;;;1.17;1.00;;;;;;;;;;5066576;28;20199;-55
2024/04/02 14:00:59;;;;;;;1.60;1.13;;;;;;;;;;5066528;28;20203;-54
2024/04/02 14:03:26;;;;;;;2.10;1.15;;;;;;;;;;5066425;28;20199;-53
2024/04/02 14:05:55;;;;;;;1.98;1.10;;;;;;;;;;5066033;28;20226;-55
2024/04/02 14:08:22;;;;;;;1.52;1.13;;;;;;;;;;5066380;28;20736;-54
2024/04/02 14:10:48;;;;;;;1.60;1.10;;;;;;;;;;5066505;28;20206;-54
2024/04/02 14:13:17;;;;;;;2.70;1.23;;;;;;;;;;5066298;28;20675;-56
2024/04/02 14:15:43;;;;;;;1.35;1.00;;;;;;;;;;5066576;28;20264;-54
2024/04/02 14:18:11;;;;;;;2.60;1.05;;;;;;;;;;5066258;28;20200;-55
2024/04/02 14:20:36;;;;;;;2.20;1.23;;;;;;;;;;5066431;28;20591;-56
2024/04/02 14:23:03;;;;;;;1.42;1.10;;;;;;;;;;5065890;28;20207;-53
2024/04/02 14:25:30;;;;;;;5.80;1.70;;;;;;;;;;5065437;28;20231;-53
2024/04/02 14:27:57;;;;;;;2.97;1.33;;;;;;;;;;5065874;28;20737;-55
2024/04/02 14:30:22;;;;;;;2.42;1.00;;;;;;;;;;5066355;28;20210;-54
2024/04/02 14:32:49;;;;;;;1.80;1.13;;;;;;;;;;5066038;28;20215;-54
2024/04/02 14:35:16;;;;;;;2.95;1.20;;;;;;;;;;5066174;28;20203;-56
2024/04/02 14:37:43;;;;;;;1.23;1.00;;;;;;;;;;5065867;28;20728;-53